Time;durP1;ratioP1;P1;durP2;ratioP2;P2;SDS_P1;SDS_P2;PMS_P1;PMS_P2;Temp;Humidity;BMP_temperature;BMP_pressure;BME280_temperature;BME280_humidity;BME280_pressure;Samples;Min_cycle;Max_cycle;Signal;HPM_P1;HPM_P2
2021/12/03 00:02:09;;;;;;;233.57;116.65;;;;;;;12.90;100.00;99008.00;5059111;28;20136;-66
2021/12/03 00:04:51;;;;;;;233.32;115.35;;;;;;;12.97;100.00;99012.06;5076451;28;20071;-66
2021/12/03 00:07:42;;;;;;;232.55;117.90;;;;;;;12.96;100.00;99010.34;5069578;28;20140;-66
2021/12/03 00:10:26;;;;;;;240.57;120.22;;;;;;;12.83;100.00;99009.94;5069553;28;20056;-66
2021/12/03 00:13:16;;;;;;;249.20;122.38;;;;;;;12.77;100.00;99012.72;5072385;28;20099;-66
2021/12/03 00:15:59;;;;;;;236.43;121.28;;;;;;;12.75;100.00;99003.34;5069755;28;20048;-67
2021/12/03 00:18:50;;;;;;;236.60;122.57;;;;;;;12.75;100.00;99011.94;5069158;28;20139;-66
2021/12/03 00:21:39;;;;;;;239.60;121.13;;;;;;;12.73;100.00;99012.88;5069406;28;20059;-67
2021/12/03 00:24:28;;;;;;;234.40;121.63;;;;;;;12.61;100.00;99012.38;5068838;28;20540;-67
2021/12/03 00:27:11;;;;;;;241.23;123.00;;;;;;;12.55;100.00;99010.00;5068709;28;20063;-67
2021/12/03 00:30:01;;;;;;;246.98;125.00;;;;;;;12.42;100.00;99007.88;5049277;28;20040;-67
2021/12/03 00:32:50;;;;;;;243.77;125.50;;;;;;;12.53;100.00;99011.78;5066333;28;20056;-67
2021/12/03 00:35:41;;;;;;;241.07;124.88;;;;;;;12.47;100.00;99006.81;5068582;28;20148;-67
2021/12/03 00:38:24;;;;;;;261.98;128.18;;;;;;;12.46;100.00;99010.28;5050995;28;20044;-67
2021/12/03 00:41:23;;;;;;;266.80;126.57;;;;;;;12.50;100.00;99011.91;5068622;28;20051;-67
2021/12/03 00:43:59;;;;;;;250.93;128.55;;;;;;;12.59;100.00;99008.16;5068675;28;20510;-67
2021/12/03 00:46:47;;;;;;;248.85;129.32;;;;;;;12.62;100.00;99008.91;5066978;28;20052;-67
2021/12/03 00:49:36;;;;;;;253.93;126.78;;;;;;;12.59;100.00;99016.78;5067926;28;20045;-67
2021/12/03 00:52:19;;;;;;;247.23;129.38;;;;;;;12.53;100.00;99019.53;5065998;28;20037;-66
2021/12/03 00:55:08;;;;;;;255.20;128.27;;;;;;;12.54;100.00;99021.22;5062859;28;20470;-67
2021/12/03 00:57:52;;;;;;;258.08;131.60;;;;;;;12.42;100.00;99025.97;5050884;28;20086;-67
2021/12/03 01:00:42;;;;;;;254.27;129.05;;;;;;;12.32;100.00;99032.31;5065472;28;20048;-65
2021/12/03 01:03:25;;;;;;;257.08;132.02;;;;;;;12.35;100.00;99038.22;5066234;28;20053;-67
2021/12/03 01:06:13;;;;;;;259.55;130.10;;;;;;;12.48;100.00;99043.84;5068588;28;20048;-66
2021/12/03 01:08:56;;;;;;;;;;;;;;;12.26;100.00;99046.25;5069061;28;20060;-67
2021/12/03 01:11:46;;;;;;;269.05;129.05;;;;;;;12.24;100.00;99042.88;5068900;28;20286;-66
2021/12/03 01:14:29;;;;;;;312.92;143.82;;;;;;;12.21;100.00;99043.00;5067477;28;20056;-66
2021/12/03 01:17:18;;;;;;;271.17;134.40;;;;;;;12.18;100.00;99045.66;5068098;28;20577;-66
2021/12/03 01:20:06;;;;;;;287.90;138.88;;;;;;;12.16;100.00;99048.28;5048266;28;20140;-67
2021/12/03 01:22:58;;;;;;;274.35;137.70;;;;;;;12.38;100.00;99048.44;5048538;28;20095;-66
2021/12/03 01:25:42;;;;;;;307.40;144.90;;;;;;;12.24;100.00;99053.22;5052810;28;20537;-66
2021/12/03 01:28:32;;;;;;;293.48;142.63;;;;;;;12.34;100.00;99059.78;5058115;28;20050;-67
2021/12/03 01:31:17;;;;;;;304.27;143.23;;;;;;;12.20;100.00;99059.38;5067759;28;20131;-67
2021/12/03 01:34:07;;;;;;;288.20;142.43;;;;;;;12.28;100.00;99057.41;5038803;28;20064;-67
2021/12/03 01:36:50;;;;;;;315.50;146.75;;;;;;;12.09;100.00;99057.09;5067302;28;20048;-66
2021/12/03 01:39:45;;;;;;;300.90;146.45;;;;;;;12.05;100.00;99068.41;5063877;28;20159;-66
2021/12/03 01:42:33;;;;;;;313.20;149.00;;;;;;;12.30;100.00;99065.94;5056576;28;20062;-67
2021/12/03 01:45:35;;;;;;;296.25;147.07;;;;;;;12.19;100.00;99078.34;5065869;28;20056;-66
2021/12/03 01:48:18;;;;;;;304.80;147.48;;;;;;;12.32;100.00;99074.47;5058590;28;20131;-67
2021/12/03 01:51:10;;;;;;;299.67;150.18;;;;;;;12.32;100.00;99078.81;5065429;28;20363;-66
2021/12/03 01:53:53;;;;;;;301.70;148.15;;;;;;;12.20;100.00;99083.47;5067572;28;20044;-67
2021/12/03 01:56:43;;;;;;;310.77;144.55;;;;;;;12.14;100.00;99096.53;5062065;28;20159;-67
2021/12/03 01:59:26;;;;;;;314.52;148.98;;;;;;;12.32;100.00;99087.41;5066278;28;20539;-67
2021/12/03 02:02:15;;;;;;;298.45;145.15;;;;;;;12.23;100.00;99092.84;5046559;28;20685;-67
2021/12/03 02:05:00;;;;;;;291.58;142.32;;;;;;;12.18;100.00;99107.63;5058082;28;20052;-67
2021/12/03 02:07:51;;;;;;;290.20;138.95;;;;;;;12.07;100.00;99105.38;5067641;28;20059;-67
2021/12/03 02:10:34;;;;;;;303.45;141.27;;;;;;;12.03;100.00;99108.09;5067205;28;20048;-67
2021/12/03 02:13:24;;;;;;;299.15;143.82;;;;;;;12.02;100.00;99117.56;5058939;28;20045;-68
2021/12/03 02:16:15;;;;;;;295.77;143.93;;;;;;;11.99;100.00;99109.06;5067019;28;20059;-67
2021/12/03 02:18:58;;;;;;;292.35;142.75;;;;;;;12.16;100.00;99114.56;5067284;28;20048;-68
2021/12/03 02:21:46;;;;;;;315.65;147.60;;;;;;;12.39;100.00;99117.31;5067326;28;20052;-67
2021/12/03 02:24:36;;;;;;;296.98;145.55;;;;;;;12.36;100.00;99127.75;5067012;28;20133;-67
2021/12/03 02:27:25;;;;;;;334.08;151.25;;;;;;;12.29;100.00;99136.59;5051429;28;20048;-67
2021/12/03 02:30:16;;;;;;;311.92;147.25;;;;;;;12.26;100.00;99137.53;5043136;28;20048;-67
2021/12/03 02:32:58;;;;;;;315.92;147.18;;;;;;;12.41;100.00;99141.38;5047364;28;20053;-67
2021/12/03 02:35:48;;;;;;;308.45;148.30;;;;;;;12.62;100.00;99140.72;5046886;28;20061;-67
2021/12/03 02:38:32;;;;;;;329.17;151.40;;;;;;;12.61;100.00;99148.53;5037028;28;20044;-66
2021/12/03 02:41:27;;;;;;;321.63;154.23;;;;;;;12.63;100.00;99150.16;5067872;27;20054;-67
2021/12/03 02:44:04;;;;;;;321.45;152.60;;;;;;;12.94;100.00;99162.97;5052671;28;20528;-68
2021/12/03 02:47:00;;;;;;;326.90;153.95;;;;;;;12.96;100.00;99165.53;5058979;28;20048;-66
2021/12/03 02:49:41;;;;;;;327.80;154.48;;;;;;;12.97;100.00;99172.38;5075819;28;20052;-66
2021/12/03 02:52:30;;;;;;;302.88;151.55;;;;;;;13.22;100.00;99181.09;5052966;28;20044;-66
2021/12/03 02:55:19;;;;;;;346.13;156.02;;;;;;;13.36;100.00;99175.44;5070869;28;20129;-66
2021/12/03 02:58:03;;;;;;;327.67;162.90;;;;;;;13.34;100.00;99183.25;5076392;28;20055;-66
2021/12/03 03:00:55;;;;;;;333.20;167.40;;;;;;;13.60;100.00;99182.38;5078142;28;20077;-66
2021/12/03 03:03:38;;;;;;;352.08;170.70;;;;;;;13.80;100.00;99194.66;5091801;28;20059;-65
2021/12/03 03:06:29;;;;;;;335.40;165.38;;;;;;;13.97;100.00;99207.00;5067564;28;20093;-65
2021/12/03 03:09:12;;;;;;;336.05;161.13;;;;;;;14.61;100.00;99221.06;5065932;28;20572;-65
2021/12/03 03:12:01;;;;;;;337.50;166.93;;;;;;;14.97;100.00;99223.19;5077770;28;20048;-65
2021/12/03 03:14:53;;;;;;;340.92;175.20;;;;;;;15.09;100.00;99231.31;5086709;28;20415;-66
2021/12/03 03:17:43;;;;;;;425.98;197.73;;;;;;;15.21;100.00;99236.03;5075171;28;20062;-65
2021/12/03 03:20:27;;;;;;;389.42;178.00;;;;;;;15.51;100.00;99249.53;5068874;28;20084;-65
2021/12/03 03:23:16;;;;;;;412.08;206.60;;;;;;;15.83;100.00;99249.97;5045508;28;20067;-67
2021/12/03 03:25:58;;;;;;;416.58;211.18;;;;;;;16.12;100.00;99259.97;5064243;28;20064;-66
2021/12/03 03:28:50;;;;;;;423.58;209.07;;;;;;;16.53;100.00;99260.72;5084007;28;20055;-66
2021/12/03 03:31:39;;;;;;;441.38;224.73;;;;;;;17.00;100.00;99268.19;5078775;28;20514;-66
2021/12/03 03:34:28;;;;;;;461.05;233.30;;;;;;;17.26;100.00;99269.53;5070780;28;20052;-66
2021/12/03 03:37:18;;;;;;;448.73;228.82;;;;;;;17.53;100.00;99268.22;5070383;28;20040;-67
2021/12/03 03:40:16;;;;;;;431.67;221.20;;;;;;;17.79;100.00;99267.81;5060582;28;20566;-67
2021/12/03 03:43:14;;;;;;;418.98;216.20;;;;;;;18.36;100.00;99270.94;5049636;28;20048;-66
2021/12/03 03:45:52;;;;;;;423.13;219.73;;;;;;;18.48;100.00;99280.75;5046530;28;20511;-66
2021/12/03 03:48:49;;;;;;;403.65;213.65;;;;;;;18.79;100.00;99285.22;5042657;28;20669;-66
2021/12/03 03:51:26;;;;;;;407.50;211.70;;;;;;;18.92;100.00;99293.22;5040243;28;20044;-66
2021/12/03 03:54:16;;;;;;;413.77;215.65;;;;;;;19.14;100.00;99291.16;5042874;28;20065;-67
2021/12/03 03:56:59;;;;;;;426.58;222.18;;;;;;;19.40;98.78;99294.91;5046306;28;20060;-69
2021/12/03 03:59:48;;;;;;;434.90;217.07;;;;;;;19.54;97.09;99305.47;5027886;28;20049;-69
2021/12/03 04:02:30;;;;;;;406.65;219.80;;;;;;;19.65;97.20;99307.47;5043607;28;20041;-69
2021/12/03 04:05:20;;;;;;;412.60;224.77;;;;;;;20.07;95.89;99304.16;5029421;28;20048;-68
2021/12/03 04:08:02;;;;;;;448.83;232.77;;;;;;;20.35;92.44;99313.88;5044668;28;20049;-68
2021/12/03 04:10:58;;;;;;;473.73;244.82;;;;;;;20.59;87.27;99322.88;5044184;28;20052;-68
2021/12/03 04:13:34;;;;;;;513.95;248.52;;;;;;;20.64;85.03;99328.66;5044837;28;20041;-68
2021/12/03 04:16:25;;;;;;;454.55;241.27;;;;;;;21.04;81.25;99319.19;5041189;28;20638;-69
2021/12/03 04:19:14;;;;;;;539.80;235.73;;;;;;;21.07;84.10;99320.78;5039570;28;20075;-69
2021/12/03 04:22:05;;;;;;;387.38;197.68;;;;;;;21.06;72.02;99334.81;5045613;28;20055;-68
2021/12/03 04:24:54;;;;;;;391.13;202.88;;;;;;;21.28;76.88;99324.69;5039882;28;20045;-68
2021/12/03 04:27:44;;;;;;;369.25;187.23;;;;;;;21.20;75.02;99325.19;5025745;28;20046;-67
2021/12/03 04:30:35;;;;;;;349.52;184.13;;;;;;;21.20;75.16;99334.81;5045735;28;20041;-66
2021/12/03 04:33:25;;;;;;;391.38;196.95;;;;;;;21.08;75.85;99330.28;5033928;28;20493;-67
2021/12/03 04:36:07;;;;;;;387.20;196.48;;;;;;;21.66;79.65;99325.69;5031323;28;20056;-67
2021/12/03 04:39:03;;;;;;;330.95;170.10;;;;;;;21.42;68.31;99329.88;5021129;28;20045;-66
2021/12/03 04:41:59;;;;;;;348.10;183.45;;;;;;;21.64;74.95;99321.47;5030115;28;20896;-66
2021/12/03 04:44:48;;;;;;;392.20;197.70;;;;;;;21.58;67.16;99329.75;5036127;28;20077;-67
2021/12/03 04:47:30;;;;;;;262.08;136.25;;;;;;;21.59;57.83;99337.53;5041657;28;20060;-66
2021/12/03 04:50:22;;;;;;;255.98;127.13;;;;;;;21.37;57.59;99329.34;5054422;28;20376;-67
2021/12/03 04:53:04;;;;;;;264.15;133.05;;;;;;;21.54;69.41;99326.50;5047381;28;20052;-66
2021/12/03 04:55:54;;;;;;;341.13;169.85;;;;;;;20.74;63.85;99323.69;5043768;28;20106;-67
2021/12/03 04:58:43;;;;;;;352.30;176.05;;;;;;;21.31;71.85;99324.50;5030251;28;20076;-68
2021/12/03 05:01:33;;;;;;;333.08;160.80;;;;;;;21.76;67.40;99318.06;5045080;28;20119;-68
2021/12/03 05:04:23;;;;;;;293.95;143.10;;;;;;;21.74;65.60;99319.94;5042586;28;20115;-69
2021/12/03 05:10:04;;;;;;;308.13;148.40;;;;;;;21.43;60.03;99335.97;5055298;28;20131;-65
2021/12/03 05:12:58;;;;;;;301.13;145.90;;;;;;;21.87;61.10;99328.69;5050425;28;20144;-65
2021/12/03 05:15:46;;;;;;;255.77;126.97;;;;;;;22.30;61.02;99326.69;5030732;28;20052;-64
2021/12/03 05:18:35;;;;;;;207.43;106.95;;;;;;;22.44;53.33;99318.72;5047494;28;20575;-65
2021/12/03 05:21:17;;;;;;;230.07;112.88;;;;;;;22.49;56.02;99314.00;5043512;28;20052;-65
2021/12/03 05:24:07;;;;;;;233.27;119.88;;;;;;;22.90;60.84;99318.22;5055303;28;20099;-65
2021/12/03 05:26:50;;;;;;;253.75;123.55;;;;;;;22.59;54.67;99324.69;5039015;28;20064;-65
2021/12/03 05:29:39;;;;;;;185.85;98.00;;;;;;;22.93;51.58;99325.84;5030394;28;20421;-65
2021/12/03 05:32:22;;;;;;;183.52;96.28;;;;;;;22.68;52.83;99317.97;5044439;28;20048;-64
2021/12/03 05:35:12;;;;;;;199.93;97.03;;;;;;;22.64;52.68;99311.25;5038492;28;20051;-64
2021/12/03 05:37:55;;;;;;;212.60;101.97;;;;;;;22.48;57.86;99304.44;5042199;28;20049;-64
2021/12/03 05:40:51;;;;;;;196.57;100.68;;;;;;;22.58;56.10;99311.69;5060956;27;20068;-63
2021/12/03 05:43:40;;;;;;;191.65;98.15;;;;;;;22.89;60.23;99296.34;5067879;28;20060;-65
2021/12/03 05:46:27;;;;;;;196.93;97.13;;;;;;;22.96;58.71;99290.66;5068397;28;20098;-65
2021/12/03 05:49:12;;;;;;;201.85;102.03;;;;;;;22.99;56.75;99288.63;5067599;28;20971;-66
2021/12/03 05:52:02;;;;;;;190.70;99.25;;;;;;;22.85;57.47;99284.34;5065337;28;20456;-67
2021/12/03 05:54:46;;;;;;;215.88;106.47;;;;;;;23.12;58.39;99281.56;5065208;28;20385;-67
2021/12/03 05:57:36;;;;;;;201.02;103.10;;;;;;;23.18;57.31;99286.38;5013165;28;20048;-67
2021/12/03 06:00:38;;;;;;;186.65;89.03;;;;;;;22.80;50.47;99273.34;5064007;28;20041;-68
2021/12/03 06:03:15;;;;;;;183.05;90.25;;;;;;;23.07;55.89;99270.50;5049394;28;20127;-69
2021/12/03 06:06:03;;;;;;;177.95;88.53;;;;;;;23.60;56.10;99271.09;5059904;28;20129;-69
2021/12/03 06:08:47;;;;;;;163.02;87.25;;;;;;;23.31;54.67;99265.28;5048857;28;20079;-68
2021/12/03 06:11:36;;;;;;;182.55;91.63;;;;;;;23.52;54.45;99252.41;5047514;28;20048;-65
2021/12/03 06:14:18;;;;;;;195.05;94.45;;;;;;;23.39;54.30;99255.03;5064513;28;20609;-66
2021/12/03 06:17:15;;;;;;;181.25;90.50;;;;;;;23.59;52.23;99245.72;5064514;28;20045;-66
2021/12/03 06:19:51;;;;;;;164.57;85.28;;;;;;;23.57;51.61;99245.84;5050521;28;20063;-66
2021/12/03 06:22:41;;;;;;;158.82;77.95;;;;;;;23.19;47.01;99235.47;5065849;28;20067;-66
2021/12/03 06:25:25;;;;;;;156.60;82.43;;;;;;;23.28;47.68;99236.59;5066152;28;20139;-65
2021/12/03 06:28:22;;;;;;;193.45;94.60;;;;;;;23.55;51.22;99223.22;5067063;28;20106;-65
2021/12/03 06:30:59;;;;;;;191.57;94.03;;;;;;;23.52;53.67;99226.09;5051340;28;20063;-66
2021/12/03 06:33:48;;;;;;;178.23;92.32;;;;;;;23.56;55.76;99223.09;5065747;28;20099;-64
2021/12/03 06:36:31;;;;;;;166.07;82.32;;;;;;;23.34;49.61;99228.25;5057647;28;20048;-65
2021/12/03 06:39:29;;;;;;;167.50;83.13;;;;;;;23.39;51.63;99215.59;5064058;28;20471;-65
2021/12/03 06:42:27;;;;;;;155.98;78.53;;;;;;;23.51;51.66;99214.72;5063492;28;20448;-65
2021/12/03 06:45:06;;;;;;;137.57;71.10;;;;;;;23.42;48.79;99210.13;5062060;28;20917;-65
2021/12/03 06:48:02;;;;;;;142.93;64.82;;;;;;;23.38;49.96;99205.22;5065522;28;20037;-67
2021/12/03 06:50:38;;;;;;;133.55;66.85;;;;;;;23.65;49.67;99195.28;5062693;28;20541;-65
2021/12/03 06:54:10;;;;;;;135.85;62.35;;;;;;;23.46;45.15;99201.06;5063484;28;20037;-65
2021/12/03 06:56:54;;;;;;;134.70;66.13;;;;;;;23.47;47.22;99201.88;5056543;28;20105;-64
2021/12/03 06:59:41;;;;;;;129.27;63.88;;;;;;;23.54;49.79;99188.19;5060065;28;20126;-64
2021/12/03 07:02:23;;;;;;;142.32;70.07;;;;;;;23.61;45.74;99189.41;5063784;28;20711;-65
2021/12/03 07:05:14;;;;;;;134.00;70.05;;;;;;;23.57;45.96;99187.13;5074615;28;20066;-65
2021/12/03 07:07:56;;;;;;;156.05;74.78;;;;;;;23.51;45.35;99179.69;5045584;28;20045;-65
2021/12/03 07:10:45;;;;;;;141.75;72.55;;;;;;;23.56;45.33;99175.75;5045355;28;20155;-63
2021/12/03 07:13:30;;;;;;;151.43;71.07;;;;;;;23.58;45.22;99180.91;5054889;28;20051;-64
2021/12/03 07:16:19;;;;;;;138.32;68.60;;;;;;;23.65;43.63;99174.22;5063593;28;20122;-63
2021/12/03 07:19:01;;;;;;;149.95;69.97;;;;;;;23.80;46.01;99165.16;5065970;28;20033;-63
2021/12/03 07:21:51;;;;;;;140.80;71.25;;;;;;;23.88;46.90;99154.88;5047670;28;20044;-64
2021/12/03 07:24:34;;;;;;;135.98;66.78;;;;;;;23.82;44.63;99149.25;5064757;28;20071;-64
2021/12/03 07:27:23;;;;;;;134.70;64.30;;;;;;;23.71;46.24;99146.59;5050629;28;20051;-65
2021/12/03 07:30:06;;;;;;;113.03;61.97;;;;;;;23.82;43.67;99149.25;5062559;28;20166;-65
2021/12/03 07:32:56;;;;;;;126.90;63.13;;;;;;;23.47;43.98;99138.75;5057971;28;20056;-65
2021/12/03 07:35:38;;;;;;;132.00;65.30;;;;;;;23.42;44.93;99131.22;5062952;28;20115;-65
2021/12/03 07:38:29;;;;;;;137.55;66.70;;;;;;;23.30;45.13;99124.25;5059957;28;20044;-65
2021/12/03 07:41:12;;;;;;;138.23;68.95;;;;;;;23.53;45.21;99126.03;5061661;28;20056;-64
2021/12/03 07:44:08;;;;;;;130.90;67.28;;;;;;;23.61;43.06;99128.91;5063274;28;20044;-64
2021/12/03 07:46:44;;;;;;;129.25;67.43;;;;;;;23.64;47.14;99119.91;5065072;28;20480;-64
2021/12/03 07:49:35;;;;;;;134.05;67.57;;;;;;;23.61;47.55;99113.13;5061481;28;20067;-64
2021/12/03 07:52:25;;;;;;;142.32;68.75;;;;;;;23.61;49.80;99107.88;5066072;28;20148;-64
2021/12/03 07:55:08;;;;;;;134.85;67.13;;;;;;;23.60;50.68;99107.97;5063868;28;20055;-65
2021/12/03 07:58:05;;;;;;;117.68;64.38;;;;;;;23.46;44.71;99110.78;5064680;28;20389;-64
2021/12/03 08:00:48;;;;;;;128.70;63.80;;;;;;;23.40;45.70;99100.72;5063138;28;20059;-64
2021/12/03 08:03:37;;;;;;;133.98;64.72;;;;;;;23.51;45.67;99100.78;5064660;28;20068;-65
2021/12/03 08:06:20;;;;;;;127.07;62.33;;;;;;;23.55;46.98;99099.56;5064707;28;20049;-64
2021/12/03 08:09:10;;;;;;;150.77;68.53;;;;;;;23.47;42.57;99102.75;5047290;28;20055;-66
2021/12/03 08:11:54;;;;;;;152.40;68.93;;;;;;;23.48;46.93;99087.81;5065026;28;20122;-65
2021/12/03 08:14:41;;;;;;;135.23;65.40;;;;;;;23.47;42.29;99094.03;5065259;28;20048;-64
2021/12/03 08:17:24;;;;;;;138.73;66.72;;;;;;;23.34;42.44;99086.25;5064860;28;20051;-65
2021/12/03 08:20:14;;;;;;;113.45;58.85;;;;;;;23.41;41.92;99090.09;5044958;28;20063;-63
2021/12/03 08:23:05;;;;;;;122.68;60.15;;;;;;;23.54;43.66;99087.41;5064646;28;20052;-63
2021/12/03 08:25:54;;;;;;;103.57;55.35;;;;;;;23.25;41.41;99079.06;5049567;28;20049;-64
2021/12/03 08:28:44;;;;;;;117.15;60.85;;;;;;;23.37;42.16;99087.81;5064131;28;20458;-63
2021/12/03 08:31:34;;;;;;;116.45;56.88;;;;;;;23.36;41.21;99088.78;5049731;28;20145;-65
2021/12/03 08:34:31;;;;;;;109.97;56.08;;;;;;;23.30;41.63;99083.97;5068422;28;20067;-66
2021/12/03 08:37:09;;;;;;;114.70;56.60;;;;;;;23.34;43.48;99074.88;5050075;28;20135;-65
2021/12/03 08:40:07;;;;;;;124.47;62.95;;;;;;;23.32;42.69;99076.78;5065908;28;20135;-65
2021/12/03 08:42:56;;;;;;;135.40;65.53;;;;;;;23.25;43.17;99074.63;5049962;28;20480;-65
2021/12/03 08:45:52;;;;;;;116.43;60.88;;;;;;;23.34;44.55;99067.00;5048574;28;20388;-65
2021/12/03 08:48:38;;;;;;;119.70;59.58;;;;;;;23.32;45.81;99063.66;5062883;28;20119;-65
2021/12/03 08:51:34;;;;;;;129.57;62.43;;;;;;;23.30;45.68;99058.53;5066747;28;21025;-65
2021/12/03 08:57:30;;;;;;;141.38;64.80;;;;;;;23.00;43.45;99074.78;5067355;28;20364;-65
2021/12/03 09:00:16;;;;;;;130.93;63.88;;;;;;;23.12;43.42;99071.25;5043781;28;20047;-64
2021/12/03 09:03:05;;;;;;;137.50;63.38;;;;;;;23.18;45.41;99065.53;5069473;28;20155;-65
2021/12/03 09:05:48;;;;;;;127.45;62.72;;;;;;;23.03;45.78;99071.94;5066040;28;20087;-64
2021/12/03 09:08:38;;;;;;;124.22;62.00;;;;;;;23.04;45.61;99070.16;5065904;28;20053;-63
2021/12/03 09:11:29;;;;;;;127.50;63.85;;;;;;;22.95;47.91;99058.53;5061814;28;20160;-63
2021/12/03 09:17:37;;;;;;;145.57;71.45;;;;;;;22.79;51.28;99050.97;5054707;28;20044;-64
2021/12/03 09:26:17;;;;;;;169.30;80.07;;;;;;;22.65;57.14;99035.34;5059820;28;20044;-65
2021/12/03 09:29:03;;;;;;;;;;;;;;;22.67;69.49;99040.50;5061988;28;20345;-63
2021/12/03 09:31:52;;;;;;;184.38;82.47;;;;;;;22.59;69.18;99034.97;5064853;28;19920;-63
2021/12/03 09:34:41;;;;;;;166.52;84.13;;;;;;;22.39;75.53;99042.50;5049796;28;20051;-63
2021/12/03 09:37:30;;;;;;;151.30;77.10;;;;;;;22.28;74.59;99042.44;5065207;28;20136;-63
2021/12/03 09:40:20;;;;;;;159.00;78.15;;;;;;;22.09;71.06;99044.72;5068047;27;20049;-64
2021/12/03 09:43:10;;;;;;;158.05;76.35;;;;;;;21.97;71.04;99048.19;5066275;28;20059;-64
2021/12/03 09:46:07;;;;;;;160.07;82.75;;;;;;;21.91;68.13;99049.44;5065776;28;20048;-64
2021/12/03 09:49:22;;;;;;;164.45;83.70;;;;;;;21.93;72.12;99046.72;5064920;28;20498;-62
2021/12/03 09:55:15;;;;;;;159.07;81.45;;;;;;;21.77;70.98;99044.34;5065841;28;20139;-63
2021/12/03 09:58:40;;;;;;;163.15;81.93;;;;;;;21.67;73.80;99043.28;5068519;28;20109;-62
2021/12/03 10:01:47;;;;;;;182.15;86.32;;;;;;;21.54;75.04;99051.19;5063914;28;20071;-64
2021/12/03 10:05:00;;;;;;;176.68;83.78;;;;;;;21.42;71.57;99044.13;5066068;28;20044;-65
2021/12/03 10:09:21;;;;;;;169.35;87.30;;;;;;;21.39;74.78;99047.00;5067149;28;20040;-63
2021/12/03 10:35:37;;;;;;;201.50;102.05;;;;;;;20.74;82.33;99046.97;5063465;28;20059;-64
2021/12/03 10:38:46;;;;;;;195.80;100.32;;;;;;;20.70;85.59;99045.47;5064912;28;25552;-63
2021/12/03 10:42:19;;;;;;;220.15;103.45;;;;;;;20.62;85.84;99045.97;5065673;27;20123;-63
2021/12/03 10:45:43;;;;;;;215.50;102.95;;;;;;;20.53;86.85;99043.94;5062517;28;20052;-64
2021/12/03 10:48:32;;;;;;;217.38;102.03;;;;;;;20.41;88.49;99046.53;5044786;28;20040;-64
2021/12/03 10:54:31;;;;;;;211.68;106.00;;;;;;;20.24;91.73;99051.03;5063786;28;20052;-64
2021/12/03 11:04:06;;;;;;;215.32;102.30;;;;;;;19.96;95.43;99051.06;5047066;28;20052;-64
2021/12/03 11:13:52;;;;;;;232.20;108.72;;;;;;;19.75;99.08;99060.25;5063628;28;20469;-63
2021/12/03 11:20:00;;;;;;;226.52;107.60;;;;;;;19.53;100.00;99052.03;5061199;28;20059;-65
2021/12/03 11:29:06;;;;;;;229.85;108.82;;;;;;;19.28;100.00;99063.94;5064506;28;20067;-63
2021/12/03 11:42:12;;;;;;;260.65;112.75;;;;;;;18.79;100.00;99057.25;5063990;27;20111;-63
2021/12/03 12:04:55;;;;;;;248.30;109.95;;;;;;;18.20;100.00;99072.69;5051041;28;20047;-65
2021/12/03 12:20:14;;;;;;;213.23;95.25;;;;;;;17.89;100.00;99083.94;5066821;28;20052;-64
2021/12/03 12:24:23;;;;;;;205.77;94.13;;;;;;;17.83;100.00;99083.44;5067881;28;20056;-64
2021/12/03 12:36:49;;;;;;;209.20;96.60;;;;;;;17.67;100.00;99099.03;5005581;28;20042;-64
2021/12/03 12:59:32;;;;;;;239.43;99.03;;;;;;;17.49;100.00;99115.56;5065159;28;20044;-64
2021/12/03 13:05:34;;;;;;;224.88;98.18;;;;;;;17.47;100.00;99113.06;5062583;28;20482;-64
2021/12/03 14:01:29;;;;;;;251.82;106.93;;;;;;;16.97;100.00;99178.06;5065652;28;22983;-64
2021/12/03 14:10:47;;;;;;;255.70;109.85;;;;;;;16.77;100.00;99179.00;5063956;28;20057;-65
2021/12/03 14:36:21;;;;;;;254.02;111.70;;;;;;;16.85;100.00;99181.22;5063887;28;20472;-65
2021/12/03 14:44:59;;;;;;;265.42;109.57;;;;;;;16.60;100.00;99183.28;5064832;28;20055;-65
2021/12/03 14:47:57;;;;;;;256.98;111.18;;;;;;;16.51;100.00;99186.31;5065600;28;20044;-65
2021/12/03 14:56:37;;;;;;;257.20;113.35;;;;;;;16.65;100.00;99184.78;5062781;28;20067;-65
2021/12/03 14:59:30;;;;;;;244.10;112.53;;;;;;;16.68;100.00;99191.63;5063854;28;20135;-65
2021/12/03 15:05:30;;;;;;;245.00;111.75;;;;;;;16.60;100.00;99191.09;5065429;28;20837;-63
2021/12/03 15:08:28;;;;;;;264.08;112.30;;;;;;;16.46;100.00;99200.34;5063893;28;20044;-64
2021/12/03 15:20:47;;;;;;;257.98;116.68;;;;;;;16.29;100.00;99208.06;5065298;28;20046;-64
2021/12/03 15:37:59;;;;;;;260.30;114.82;;;;;;;16.20;100.00;99203.31;5045873;28;20055;-64
2021/12/03 16:26:05;;;;;;;268.73;130.65;;;;;;;15.88;100.00;99217.69;5062146;28;20048;-65
2021/12/03 16:48:30;;;;;;;306.13;140.13;;;;;;;15.64;100.00;99216.16;4983821;28;20072;-67
2021/12/03 16:51:29;;;;;;;308.80;143.77;;;;;;;15.61;100.00;99205.88;4970859;28;20145;-65
2021/12/03 16:54:14;;;;;;;299.63;142.50;;;;;;;15.58;100.00;99219.81;5047718;28;20068;-65
2021/12/03 16:57:07;;;;;;;298.27;147.02;;;;;;;15.56;100.00;99220.81;5048290;28;20048;-65
2021/12/03 16:59:50;;;;;;;300.73;147.18;;;;;;;15.54;100.00;99228.66;5064835;28;20059;-66
2021/12/03 17:03:03;;;;;;;315.63;152.50;;;;;;;15.57;100.00;99231.13;5060995;28;20048;-65
2021/12/03 17:15:22;;;;;;;364.33;173.65;;;;;;;15.56;100.00;99234.66;5038920;28;20116;-65
2021/12/03 17:19:05;;;;;;;364.48;177.90;;;;;;;15.59;100.00;99244.88;5047137;28;20064;-65
2021/12/03 17:52:32;;;;;;;402.58;196.32;;;;;;;15.41;100.00;99239.56;5065477;28;20051;-64
2021/12/03 17:58:41;;;;;;;389.92;191.13;;;;;;;15.41;100.00;99232.63;5063683;28;20063;-64
2021/12/03 18:01:26;;;;;;;392.92;193.70;;;;;;;15.36;100.00;99234.56;5029752;28;20072;-65
2021/12/03 18:04:40;;;;;;;;;;;;;;;15.32;100.00;99238.22;4359595;28;10000468;-65
2021/12/03 18:07:56;;;;;;;378.48;185.20;;;;;;;15.29;100.00;99243.50;5031415;28;19928;-65
2021/12/03 18:17:04;;;;;;;385.52;190.52;;;;;;;15.24;100.00;99225.50;5064400;28;20052;-65
2021/12/03 18:44:57;;;;;;;357.50;179.73;;;;;;;15.09;100.00;99205.34;5061541;28;20376;-65
2021/12/03 18:51:07;;;;;;;354.02;182.75;;;;;;;15.11;100.00;99207.91;5041275;28;20358;-65
2021/12/03 18:57:07;;;;;;;353.02;185.85;;;;;;;15.05;100.00;99197.78;5062918;28;20044;-65
2021/12/03 19:00:01;;;;;;;352.65;183.85;;;;;;;14.98;100.00;99197.19;5047440;28;20059;-65
2021/12/03 19:02:49;;;;;;;376.90;184.63;;;;;;;14.94;100.00;99191.25;5058115;28;20199;-65
2021/12/03 19:11:31;;;;;;;366.52;190.07;;;;;;;14.89;100.00;99188.00;5067429;28;20055;-65
2021/12/03 19:14:16;;;;;;;383.80;186.73;;;;;;;14.85;100.00;99182.97;5058446;28;20040;-65
2021/12/03 19:17:15;;;;;;;377.48;193.05;;;;;;;14.87;100.00;99184.63;5049317;28;20412;-67
2021/12/03 19:19:59;;;;;;;382.95;189.20;;;;;;;14.85;100.00;99181.22;5037275;28;20052;-66
2021/12/03 19:22:51;;;;;;;388.90;191.35;;;;;;;14.82;100.00;99181.38;5028295;28;20052;-66
2021/12/03 19:25:35;;;;;;;382.33;191.25;;;;;;;14.82;100.00;99180.53;5058134;28;20051;-65
2021/12/03 19:28:26;;;;;;;387.65;192.77;;;;;;;14.88;100.00;99183.72;5038534;28;20048;-63
2021/12/03 19:31:09;;;;;;;;;;;;;;;14.84;100.00;99179.56;5045911;28;20388;-65
2021/12/03 19:34:00;;;;;;;374.25;185.23;;;;;;;14.81;100.00;99184.03;5054651;28;20279;-66
2021/12/03 19:36:50;;;;;;;388.95;193.15;;;;;;;14.79;100.00;99178.03;5061636;28;20048;-65
2021/12/03 19:39:36;;;;;;;401.17;198.60;;;;;;;14.79;100.00;99183.22;5069848;28;20392;-66
2021/12/03 19:43:02;;;;;;;409.63;199.30;;;;;;;14.76;100.00;99171.25;5062671;28;20060;-65